Date,TemperatureHighF,TemperatureAvgF,TemperatureLowF,DewpointHighF,DewpointAvgF,DewpointLowF,HumidityHigh,HumidityAvg,HumidityLow,PressureMaxIn,PressureMinIn,WindSpeedMaxMPH,WindSpeedAvgMPH,GustSpeedMaxMPH,PrecipitationSumIn
2012-12-1,30.4,24.9,17.7,29.0,21.7,12.0,93,87,69,30.58,30.46,8,1,10,0.01
2012-12-2,42.5,37.2,30.3,41.0,35.7,29.0,97,94,86,30.45,29.99,11,2,25,0.00
2012-12-3,46.9,39.8,30.0,44.0,38.0,29.0,98,93,81,30.23,29.97,8,2,26,0.40
2012-12-4,50.1,40.2,27.7,49.0,39.6,27.0,98,97,96,30.24,29.87,14,1,26,0.01
2012-12-5,51.5,35.2,21.1,50.0,30.1,15.0,95,81,69,30.10,29.81,20,5,28,0.17
2012-12-6,37.7,25.4,17.8,17.0,14.8,11.0,84,66,34,30.29,30.10,11,2,23,0.00
2012-12-7,34.5,28.1,21.8,32.0,24.2,17.0,96,85,72,30.23,30.00,8,1,15,0.07
2012-12-8,44.2,36.9,32.2,43.0,35.8,31.0,98,95,89,30.00,29.82,7,1,24,0.30
2012-12-9,40.6,34.7,30.2,38.0,27.9,21.0,95,77,51,30.21,29.94,13,3,19,0.06
2012-12-10,48.7,39.1,31.0,48.0,38.2,30.0,98,96,91,30.08,29.47,10,2,23,0.86
2012-12-11,35.8,29.1,21.8,34.0,24.3,16.0,94,82,71,30.10,29.54,21,4,23,0.03
2012-12-12,33.0,25.4,19.2,23.0,19.1,16.0,87,78,64,30.40,30.10,7,2,18,0.00
2012-12-13,35.1,26.7,18.6,23.0,20.5,17.0,93,78,55,30.43,30.23,6,1,11,0.01
2012-12-14,35.8,30.9,24.3,27.0,22.6,18.0,86,72,49,30.23,30.07,10,3,24,0.00
2012-12-15,35.2,28.5,23.1,25.0,20.1,10.0,85,71,58,30.27,30.13,10,2,20,0.00
2012-12-16,25.9,23.1,21.2,25.0,20.0,11.0,95,88,61,30.24,30.05,8,1,10,0.00
2012-12-17,31.4,27.6,23.8,30.0,26.4,22.0,96,95,93,30.05,29.79,6,0,8,0.05
2012-12-18,36.3,33.6,31.4,36.0,32.7,30.0,97,96,94,29.77,29.42,9,1,16,1.28
2012-12-19,34.8,31.0,28.0,31.0,27.3,24.0,94,85,77,30.03,29.44,15,5,30,0.09
2012-12-20,32.1,28.9,26.0,26.0,25.1,23.0,95,86,75,30.17,29.93,11,2,19,0.04
2012-12-21,41.7,31.6,27.4,41.0,30.4,26.0,98,95,88,29.92,28.97,20,5,41,1.20
2012-12-22,29.1,21.9,17.3,27.0,18.2,12.0,92,85,77,29.65,29.12,21,6,32,0.00
2012-12-23,26.2,22.4,18.1,22.0,17.0,11.0,89,80,71,29.83,29.65,29,4,31,0.00
2012-12-24,28.4,22.8,19.9,21.0,16.4,13.0,86,76,60,30.02,29.82,10,2,23,0.00
2012-12-25,26.5,21.1,16.8,23.0,16.7,10.0,92,83,65,30.23,29.95,12,2,24,0.00
2012-12-26,29.7,18.4,15.0,21.0,-10.3,-99.9,93,52,43,30.28,29.89,10,2,20,0.22
2012-12-27,27.2,23.3,18.2,26.0,22.0,17.0,96,94,93,29.86,29.43,19,6,29,1.37
2012-12-28,24.2,19.7,16.5,22.0,17.8,15.0,93,92,90,30.00,29.68,18,5,33,0.00
2012-12-29,24.9,11.9,21.6,23.0,-37.1,-99.9,94,48,91,29.98,29.50,5,1,10,0.18
2012-12-30,23.4,15.0,9.4,22.0,11.3,5.0,94,85,78,30.02,29.48,21,7,34,0.01
2012-12-31,25.7,21.2,12.2,22.0,17.2,7.0,91,84,77,30.01,29.71,22,5,33,0.00